KGBK

Magnolia

Magnolia, Louisiana, USA
METAR KGBK 230255Z AUTO 08009G16KT 030V100 10SM CLR 28/23 A2998 RMK A01
Observed Flight Rules
May-23 @ 02:55 UTC (26 minutes ago) Visual Flight Rules
Wind Visibility Clouds
80° at 9 knots
 Gusting to 16 knots
10 miles
  • Clear skies
Temperatures Readings
Current 28°C / 82°F
Dewpoint 23°C / 73°F
Humidity 74%
Altimeter 29.98" Hg
Pressure 1015 hPa
Elevation 59
METAR KGBK 230255Z AUTO 08009G16KT 030V100 10SM CLR 28/23 A2998 RMK A01
Observed Flight Rules
May-23 @ 02:55 UTC
(26 minutes ago)
VFR
Wind Visibility
80° at 9 knots
 Gusting to 16 knots
10 miles
Clouds
  • Clear skies
Temperature Dewpoint
28°C / 82°F 23°C / 73°F
Humidity Altimeter Pressure
74% 29.98" Hg 1015 hPa